createdAt,value
2023-09-13T00:02:26.447Z,19.83
2023-09-13T00:04:55.849Z,19.88
2023-09-13T00:07:24.184Z,19.61
2023-09-13T00:09:52.314Z,19.88
2023-09-13T00:12:20.293Z,19.84
2023-09-13T00:14:49.455Z,19.79
2023-09-13T00:17:18.893Z,19.84
2023-09-13T00:19:48.250Z,19.94
2023-09-13T00:22:16.593Z,19.71
2023-09-13T00:24:44.658Z,20.00
2023-09-13T00:27:12.637Z,19.91
2023-09-13T00:29:40.700Z,19.85
2023-09-13T00:32:08.824Z,19.87
2023-09-13T00:34:36.822Z,20.05
2023-09-13T00:37:06.419Z,20.15
2023-09-13T00:39:34.681Z,20.16
2023-09-13T00:42:02.726Z,19.90
2023-09-13T00:44:30.762Z,19.61
2023-09-13T00:46:59.057Z,19.61
2023-09-13T00:49:27.790Z,19.07
2023-09-13T00:51:56.576Z,19.67
2023-09-13T00:54:26.913Z,19.68
2023-09-13T00:56:55.124Z,19.72
2023-09-13T00:59:23.513Z,19.58
2023-09-13T01:01:51.589Z,19.70
2023-09-13T01:04:19.916Z,19.41
2023-09-13T01:06:48.536Z,19.34
2023-09-13T01:09:17.155Z,19.34
2023-09-13T01:11:47.022Z,19.14
2023-09-13T01:14:15.036Z,19.12
2023-09-13T01:16:51.312Z,18.89
2023-09-13T01:19:40.096Z,18.74
2023-09-13T01:22:26.331Z,18.61
2023-09-13T01:25:41.535Z,19.05
2023-09-13T01:28:17.550Z,18.90
2023-09-13T01:30:47.232Z,18.91
2023-09-13T01:33:15.374Z,19.11
2023-09-13T01:35:43.481Z,18.96
2023-09-13T01:38:12.084Z,18.80
2023-09-13T01:40:43.289Z,18.81
2023-09-13T01:43:12.077Z,18.70
2023-09-13T01:45:40.940Z,18.84
2023-09-13T01:48:12.241Z,18.72
2023-09-13T01:50:41.169Z,18.60
2023-09-13T01:53:09.196Z,18.92
2023-09-13T01:55:37.770Z,18.60
2023-09-13T01:58:06.105Z,18.66
2023-09-13T02:00:34.170Z,18.75
2023-09-13T02:03:02.379Z,18.49
2023-09-13T02:05:31.848Z,18.41
2023-09-13T02:08:00.255Z,18.09
2023-09-13T02:10:28.291Z,18.24
2023-09-13T02:12:56.358Z,18.37
2023-09-13T02:15:24.390Z,18.41
2023-09-13T02:17:52.553Z,18.22
2023-09-13T02:20:20.619Z,18.18
2023-09-13T02:22:49.991Z,18.36
2023-09-13T02:25:18.755Z,18.49
2023-09-13T02:27:46.836Z,18.27
2023-09-13T02:30:14.983Z,18.29
2023-09-13T02:32:43.353Z,18.10
2023-09-13T02:35:12.961Z,18.01
2023-09-13T02:37:41.428Z,18.00
2023-09-13T02:40:12.909Z,18.26
2023-09-13T02:42:41.029Z,18.26
2023-09-13T02:45:10.503Z,18.04
2023-09-13T02:47:38.531Z,18.35
2023-09-13T02:50:07.537Z,18.15
2023-09-13T02:52:36.687Z,18.01
2023-09-13T02:55:06.778Z,18.13
2023-09-13T02:57:36.219Z,18.10
2023-09-13T03:00:06.157Z,17.97
2023-09-13T03:02:34.409Z,18.01
2023-09-13T03:05:02.472Z,18.02
2023-09-13T03:07:30.468Z,18.36
2023-09-13T03:09:58.949Z,18.21
2023-09-13T03:12:27.140Z,18.31
2023-09-13T03:14:58.348Z,18.19
2023-09-13T03:17:26.422Z,17.32
2023-09-13T03:19:54.738Z,17.58
2023-09-13T03:22:22.800Z,17.48
2023-09-13T03:24:50.922Z,17.52
2023-09-13T03:27:18.936Z,17.51
2023-09-13T03:29:46.969Z,17.76
2023-09-13T03:32:16.358Z,17.37
2023-09-13T03:34:44.353Z,17.48
2023-09-13T03:37:12.830Z,17.26
2023-09-13T03:39:40.820Z,16.97
2023-09-13T03:42:08.899Z,16.88
2023-09-13T03:44:36.948Z,16.71
2023-09-13T03:47:05.271Z,16.50
2023-09-13T03:49:34.706Z,16.82
2023-09-13T03:52:04.246Z,16.93
2023-09-13T03:54:32.276Z,17.17
2023-09-13T03:57:00.287Z,17.12
2023-09-13T03:59:28.248Z,16.98
2023-09-13T04:01:59.135Z,16.42
2023-09-13T04:04:27.808Z,16.34
2023-09-13T04:06:57.288Z,16.36
2023-09-13T04:09:25.402Z,15.97
2023-09-13T04:11:53.409Z,16.09
2023-09-13T04:14:21.423Z,16.03
2023-09-13T04:16:49.513Z,16.16
2023-09-13T04:19:17.603Z,16.16
2023-09-13T04:21:45.779Z,16.30
2023-09-13T04:24:15.267Z,16.64
2023-09-13T04:26:43.375Z,16.99
2023-09-13T04:29:11.345Z,17.25
2023-09-13T04:31:39.504Z,17.36
2023-09-13T04:34:07.610Z,17.56
2023-09-13T04:36:36.789Z,17.72
2023-09-13T04:39:05.433Z,17.89
2023-09-13T04:41:34.825Z,18.14
2023-09-13T04:44:03.426Z,18.43
2023-09-13T04:46:31.664Z,18.90
2023-09-13T04:48:59.782Z,19.31
2023-09-13T04:51:27.954Z,19.83
2023-09-13T04:53:56.192Z,19.75
2023-09-13T04:56:24.337Z,20.24
2023-09-13T04:58:53.712Z,20.22
2023-09-13T05:01:21.870Z,20.06
2023-09-13T05:03:51.169Z,20.09
2023-09-13T05:06:19.511Z,20.37
2023-09-13T05:08:47.706Z,20.56
2023-09-13T05:11:15.717Z,20.83
2023-09-13T05:13:44.083Z,21.13
2023-09-13T05:16:14.068Z,21.10
2023-09-13T05:18:42.451Z,21.13
2023-09-13T05:21:10.578Z,21.25
2023-09-13T05:23:38.602Z,21.42
2023-09-13T05:26:06.827Z,21.63
2023-09-13T05:28:35.415Z,21.85
2023-09-13T05:31:04.299Z,22.01
2023-09-13T05:33:35.232Z,22.36
2023-09-13T05:36:05.358Z,22.68
2023-09-13T05:38:33.855Z,22.84
2023-09-13T05:41:08.487Z,22.86
2023-09-13T05:43:36.626Z,22.96
2023-09-13T05:46:04.950Z,23.45
2023-09-13T05:48:34.541Z,23.60
2023-09-13T05:51:02.788Z,23.59
2023-09-13T05:53:31.104Z,23.55
2023-09-13T05:55:59.620Z,24.04
2023-09-13T05:58:27.715Z,23.95
2023-09-13T06:00:57.212Z,23.97
2023-09-13T06:03:25.789Z,24.19
2023-09-13T06:05:55.314Z,24.42
2023-09-13T06:08:23.344Z,24.96
2023-09-13T06:10:51.504Z,25.50
2023-09-13T06:13:19.550Z,25.48
2023-09-13T06:15:47.591Z,25.10
2023-09-13T06:18:15.922Z,24.59
2023-09-13T06:20:44.554Z,24.37
2023-09-13T06:23:35.012Z,23.90
2023-09-13T06:26:03.773Z,24.88
2023-09-13T06:28:32.389Z,25.56
2023-09-13T06:31:04.526Z,25.70
2023-09-13T06:33:41.704Z,25.90
2023-09-13T06:36:12.229Z,25.50
2023-09-13T06:38:43.088Z,25.10
2023-09-13T06:41:11.444Z,25.80
2023-09-13T06:44:00.812Z,25.74
2023-09-13T06:46:31.160Z,26.17
2023-09-13T06:48:59.817Z,26.71
2023-09-13T06:54:02.111Z,26.72
2023-09-13T06:56:34.196Z,26.16
2023-09-13T06:59:06.848Z,25.79
2023-09-13T07:01:58.616Z,25.98
2023-09-13T07:04:31.577Z,26.05
2023-09-13T07:07:04.689Z,25.75
2023-09-13T07:09:34.178Z,26.08
2023-09-13T07:12:02.251Z,27.03
2023-09-13T07:14:30.409Z,27.14
2023-09-13T07:16:58.459Z,27.12
2023-09-13T07:19:26.593Z,27.52
2023-09-13T07:21:54.606Z,27.36
2023-09-13T07:24:22.793Z,27.72
2023-09-13T07:26:52.188Z,27.43
2023-09-13T07:29:20.618Z,27.51
2023-09-13T07:31:48.977Z,27.44
2023-09-13T07:34:30.890Z,27.10
2023-09-13T07:37:00.403Z,27.82
2023-09-13T07:39:29.534Z,27.42
2023-09-13T07:41:59.808Z,28.09
2023-09-13T07:44:28.012Z,28.14
2023-09-13T07:46:56.157Z,28.28
2023-09-13T07:49:27.383Z,28.58
2023-09-13T07:51:55.503Z,28.88
2023-09-13T07:54:23.525Z,28.56
2023-09-13T07:56:51.732Z,28.14
2023-09-13T07:59:22.501Z,28.40
2023-09-13T08:01:51.676Z,28.52
2023-09-13T08:04:20.408Z,28.64
2023-09-13T08:06:49.025Z,28.59
2023-09-13T08:09:17.945Z,28.71
2023-09-13T08:11:48.367Z,28.65
2023-09-13T08:14:16.438Z,28.92
2023-09-13T08:16:46.691Z,28.65
2023-09-13T08:19:15.271Z,29.82
2023-09-13T08:21:43.478Z,30.50
2023-09-13T08:24:11.715Z,30.53
2023-09-13T08:26:40.013Z,30.46
2023-09-13T08:29:08.098Z,30.91
2023-09-13T08:31:36.113Z,31.06
2023-09-13T08:34:05.878Z,31.09
2023-09-13T08:36:35.286Z,31.02
2023-09-13T08:39:06.473Z,31.58
2023-09-13T08:41:35.036Z,31.50
2023-09-13T08:44:06.126Z,31.00
2023-09-13T08:46:35.552Z,31.23
2023-09-13T08:49:07.364Z,31.36
2023-09-13T08:51:36.572Z,31.39
2023-09-13T08:54:05.479Z,31.68
2023-09-13T08:56:33.855Z,31.88
2023-09-13T08:59:02.962Z,32.16
2023-09-13T09:01:32.966Z,32.03
2023-09-13T09:04:02.428Z,31.53
2023-09-13T09:06:33.649Z,31.80
2023-09-13T09:09:05.357Z,32.10
2023-09-13T09:11:35.390Z,32.20
2023-09-13T09:14:04.767Z,31.73
2023-09-13T09:16:33.599Z,31.77
2023-09-13T09:19:06.080Z,32.42
2023-09-13T09:21:36.358Z,32.52
2023-09-13T09:24:04.609Z,33.59
2023-09-13T09:26:32.919Z,33.58
2023-09-13T09:29:11.935Z,33.64
2023-09-13T09:31:40.383Z,33.24
2023-09-13T09:34:08.710Z,33.21
2023-09-13T09:36:43.727Z,32.65
2023-09-13T09:39:12.602Z,32.68
2023-09-13T09:41:41.637Z,33.36
2023-09-13T09:44:10.013Z,33.34
2023-09-13T09:46:38.559Z,32.87
2023-09-13T09:49:07.036Z,32.99
2023-09-13T09:51:35.416Z,33.39
2023-09-13T09:54:04.969Z,33.29
2023-09-13T09:56:33.015Z,33.47
2023-09-13T09:59:02.145Z,33.76
2023-09-13T10:01:32.514Z,33.70
2023-09-13T10:04:10.221Z,33.95
2023-09-13T10:06:38.457Z,33.87
2023-09-13T10:09:08.121Z,34.90
2023-09-13T10:11:37.519Z,35.09
2023-09-13T10:14:05.639Z,34.87
2023-09-13T10:16:35.066Z,35.15
2023-09-13T10:19:07.389Z,35.37
2023-09-13T10:21:36.490Z,35.56
2023-09-13T10:24:08.539Z,35.95
2023-09-13T10:26:37.185Z,36.57
2023-09-13T10:29:13.145Z,36.04
2023-09-13T10:31:44.737Z,35.95
2023-09-13T10:34:18.493Z,35.94
2023-09-13T10:36:50.930Z,36.17
2023-09-13T10:39:24.835Z,36.04
2023-09-13T10:42:00.241Z,36.05
2023-09-13T10:44:28.318Z,35.67
2023-09-13T10:46:57.757Z,35.80
2023-09-13T10:49:26.870Z,35.13
2023-09-13T10:51:57.415Z,35.33
2023-09-13T10:54:27.908Z,36.20
2023-09-13T10:56:56.202Z,35.85
2023-09-13T10:59:26.990Z,35.99
2023-09-13T11:01:55.208Z,35.91
2023-09-13T11:04:25.228Z,36.00
2023-09-13T11:06:55.724Z,36.51
2023-09-13T11:09:30.181Z,36.95
2023-09-13T11:11:59.450Z,36.87
2023-09-13T11:14:28.646Z,36.23
2023-09-13T11:16:58.910Z,36.55
2023-09-13T11:19:28.645Z,36.97
2023-09-13T11:22:01.669Z,36.84
2023-09-13T11:24:54.623Z,36.43
2023-09-13T11:27:27.438Z,37.12
2023-09-13T11:30:00.287Z,37.56
2023-09-13T11:32:32.698Z,36.75
2023-09-13T11:35:02.478Z,37.02
2023-09-13T11:37:34.652Z,37.07
2023-09-13T11:40:13.409Z,37.35
2023-09-13T11:45:32.438Z,38.23
2023-09-13T11:48:03.970Z,38.16
2023-09-13T11:50:48.941Z,38.00
2023-09-13T11:53:26.354Z,37.93
2023-09-13T11:56:11.716Z,37.35
2023-09-13T11:58:55.847Z,38.17
2023-09-13T12:01:27.740Z,37.96
2023-09-13T12:06:33.497Z,37.62
2023-09-13T12:09:15.089Z,37.11
2023-09-13T12:11:48.869Z,37.44
2023-09-13T12:14:30.818Z,37.60
2023-09-13T12:17:08.936Z,37.40
2023-09-13T12:19:38.600Z,37.35
2023-09-13T12:22:07.010Z,37.08
2023-09-13T12:24:52.980Z,36.58
2023-09-13T12:27:25.128Z,36.76
2023-09-13T12:29:53.421Z,36.70
2023-09-13T12:32:21.916Z,35.88
2023-09-13T12:34:50.429Z,35.89
2023-09-13T12:37:18.961Z,35.94
2023-09-13T12:39:47.063Z,35.91
2023-09-13T12:42:16.328Z,36.01
2023-09-13T12:44:47.460Z,36.32
2023-09-13T12:47:19.169Z,36.37
2023-09-13T12:49:47.637Z,36.21
2023-09-13T12:52:17.736Z,35.63
2023-09-13T12:54:47.422Z,35.41
2023-09-13T12:57:15.980Z,35.24
2023-09-13T12:59:48.141Z,34.57
2023-09-13T13:02:17.406Z,34.66
2023-09-13T13:04:46.431Z,34.57
2023-09-13T13:07:22.847Z,34.63
2023-09-13T13:09:54.478Z,34.64
2023-09-13T13:12:22.829Z,34.50
2023-09-13T13:14:53.258Z,34.43
2023-09-13T13:17:22.587Z,34.27
2023-09-13T13:19:56.792Z,34.37
2023-09-13T13:22:28.745Z,34.24
2023-09-13T13:24:57.058Z,33.92
2023-09-13T13:27:25.486Z,34.29
2023-09-13T13:29:57.575Z,34.37
2023-09-13T13:32:25.596Z,34.05
2023-09-13T13:34:53.748Z,34.19
2023-09-13T13:37:22.057Z,34.18
2023-09-13T13:39:51.238Z,34.18
2023-09-13T13:42:19.394Z,34.14
2023-09-13T13:44:47.486Z,34.18
2023-09-13T13:47:16.935Z,34.17
2023-09-13T13:49:45.270Z,34.33
2023-09-13T13:52:13.346Z,34.23
2023-09-13T13:54:41.875Z,34.11
2023-09-13T13:57:10.199Z,33.58
2023-09-13T13:59:38.505Z,33.28
2023-09-13T14:02:07.355Z,33.41
2023-09-13T14:04:37.608Z,33.43
2023-09-13T14:07:06.464Z,33.74
2023-09-13T14:09:34.598Z,33.83
2023-09-13T14:12:02.684Z,33.67
2023-09-13T14:14:31.066Z,33.87
2023-09-13T14:16:59.946Z,33.95
2023-09-13T14:19:28.680Z,34.09
2023-09-13T14:21:59.954Z,33.70
2023-09-13T14:24:28.089Z,33.72
2023-09-13T14:26:56.784Z,33.44
2023-09-13T14:29:24.981Z,33.34
2023-09-13T14:31:57.563Z,33.23
2023-09-13T14:34:26.819Z,33.14
2023-09-13T14:36:55.658Z,33.10
2023-09-13T14:39:26.203Z,33.13
2023-09-13T14:41:54.787Z,33.22
2023-09-13T14:44:25.358Z,33.31
2023-09-13T14:46:54.378Z,33.23
2023-09-13T14:49:23.834Z,33.23
2023-09-13T14:51:52.234Z,33.11
2023-09-13T14:54:20.350Z,33.16
2023-09-13T14:56:50.248Z,33.06
2023-09-13T14:59:19.939Z,33.00
2023-09-13T15:01:48.053Z,33.21
2023-09-13T15:04:16.286Z,32.86
2023-09-13T15:06:44.758Z,32.87
2023-09-13T15:09:13.557Z,32.87
2023-09-13T15:11:42.844Z,32.87
2023-09-13T15:14:12.788Z,32.67
2023-09-13T15:16:42.617Z,32.34
2023-09-13T15:19:11.288Z,32.60
2023-09-13T15:21:41.103Z,32.48
2023-09-13T15:24:09.301Z,32.38
2023-09-13T15:26:37.541Z,32.39
2023-09-13T15:29:05.863Z,32.43
2023-09-13T15:32:01.609Z,32.34
2023-09-13T15:34:23.299Z,32.38
2023-09-13T15:36:52.566Z,32.28
2023-09-13T15:39:21.174Z,32.31
2023-09-13T15:41:49.727Z,32.14
2023-09-13T15:44:18.102Z,32.17
2023-09-13T15:46:49.676Z,32.02
2023-09-13T15:49:23.475Z,31.94
2023-09-13T15:51:51.936Z,31.89
2023-09-13T15:54:20.577Z,31.78
2023-09-13T15:56:49.251Z,31.57
2023-09-13T15:59:17.365Z,31.80
2023-09-13T16:01:45.542Z,31.79
2023-09-13T16:04:15.124Z,31.64
2023-09-13T16:06:43.459Z,31.77
2023-09-13T16:09:12.384Z,31.70
2023-09-13T16:11:40.573Z,31.57
2023-09-13T16:14:09.438Z,31.64
2023-09-13T16:16:38.150Z,31.57
2023-09-13T16:19:06.527Z,31.53
2023-09-13T16:21:36.058Z,31.42
2023-09-13T16:24:04.420Z,31.33
2023-09-13T16:26:32.946Z,31.25
2023-09-13T16:29:00.988Z,31.13
2023-09-13T16:31:30.997Z,31.10
2023-09-13T16:34:01.320Z,31.16
2023-09-13T16:36:30.776Z,31.14
2023-09-13T16:39:00.188Z,30.81
2023-09-13T16:41:28.762Z,30.78
2023-09-13T16:44:00.225Z,29.85
2023-09-13T16:46:28.900Z,30.37
2023-09-13T16:48:57.360Z,30.36
2023-09-13T16:51:25.775Z,30.17
2023-09-13T16:53:53.878Z,29.95
2023-09-13T16:56:25.725Z,29.81
2023-09-13T16:58:56.487Z,29.63
2023-09-13T17:01:24.605Z,29.46
2023-09-13T17:03:53.879Z,29.24
2023-09-13T17:06:22.665Z,29.45
2023-09-13T17:08:51.032Z,29.20
2023-09-13T17:11:19.789Z,29.31
2023-09-13T17:13:49.356Z,29.26
2023-09-13T17:16:18.023Z,29.29
2023-09-13T17:18:46.269Z,29.16
2023-09-13T17:21:14.877Z,29.18
2023-09-13T17:23:42.928Z,29.10
2023-09-13T17:26:10.915Z,28.79
2023-09-13T17:28:39.006Z,27.73
2023-09-13T17:31:08.485Z,28.57
2023-09-13T17:33:37.243Z,28.65
2023-09-13T17:36:06.866Z,28.55
2023-09-13T17:38:35.303Z,28.71
2023-09-13T17:41:04.133Z,28.65
2023-09-13T17:43:32.199Z,28.50
2023-09-13T17:46:00.494Z,28.45
2023-09-13T17:48:29.980Z,28.00
2023-09-13T17:50:58.098Z,28.22
2023-09-13T17:53:26.161Z,27.90
2023-09-13T17:55:55.971Z,27.24
2023-09-13T17:58:24.170Z,28.18
2023-09-13T18:00:52.309Z,28.06
2023-09-13T18:03:20.537Z,27.99
2023-09-13T18:05:50.238Z,27.94
2023-09-13T18:08:18.321Z,27.87
2023-09-13T18:10:46.662Z,27.76
2023-09-13T18:13:14.750Z,27.63
2023-09-13T18:15:43.114Z,27.45
2023-09-13T18:18:11.452Z,27.19
2023-09-13T18:20:39.846Z,26.76
2023-09-13T18:23:09.726Z,27.00
2023-09-13T18:25:37.760Z,26.84
2023-09-13T18:28:06.964Z,26.75
2023-09-13T18:30:35.438Z,26.60
2023-09-13T18:33:03.790Z,26.48
2023-09-13T18:35:35.147Z,26.44
2023-09-13T18:38:04.521Z,26.40
2023-09-13T18:40:34.061Z,26.27
2023-09-13T18:43:04.290Z,26.09
2023-09-13T18:45:38.195Z,26.15
2023-09-13T18:48:09.192Z,26.08
2023-09-13T18:50:37.589Z,25.95
2023-09-13T18:53:06.045Z,25.84
2023-09-13T18:55:35.441Z,25.88
2023-09-13T18:58:04.079Z,25.39
2023-09-13T19:00:33.551Z,25.54
2023-09-13T19:03:01.692Z,25.43
2023-09-13T19:05:29.831Z,25.25
2023-09-13T19:07:57.830Z,25.01
2023-09-13T19:10:25.913Z,25.28
2023-09-13T19:12:55.359Z,25.19
2023-09-13T19:15:23.449Z,25.28
2023-09-13T19:17:52.831Z,25.25
2023-09-13T19:20:22.920Z,25.14
2023-09-13T19:22:51.329Z,25.19
2023-09-13T19:25:20.352Z,25.23
2023-09-13T19:27:48.810Z,25.26
2023-09-13T19:30:18.588Z,25.14
2023-09-13T19:32:46.635Z,25.04
2023-09-13T19:35:15.718Z,24.80
2023-09-13T19:37:44.220Z,24.89
2023-09-13T19:40:13.117Z,24.67
2023-09-13T19:42:41.214Z,24.68
2023-09-13T19:45:09.892Z,24.05
2023-09-13T19:47:39.314Z,24.53
2023-09-13T19:50:09.644Z,24.54
2023-09-13T19:52:37.754Z,24.58
2023-09-13T19:55:07.353Z,24.57
2023-09-13T19:57:35.427Z,24.70
2023-09-13T20:00:06.119Z,24.64
2023-09-13T20:02:34.227Z,24.76
2023-09-13T20:05:03.842Z,24.61
2023-09-13T20:07:35.959Z,24.56
2023-09-13T20:10:05.555Z,24.69
2023-09-13T20:12:33.794Z,24.64
2023-09-13T20:15:02.581Z,24.59
2023-09-13T20:17:31.988Z,24.56
2023-09-13T20:20:00.129Z,24.21
2023-09-13T20:22:32.237Z,24.50
2023-09-13T20:25:01.289Z,24.51
2023-09-13T20:27:29.411Z,24.46
2023-09-13T20:29:57.421Z,24.07
2023-09-13T20:32:26.022Z,24.16
2023-09-13T20:34:58.106Z,23.88
2023-09-13T20:37:27.498Z,23.93
2023-09-13T20:39:58.393Z,24.13
2023-09-13T20:42:27.385Z,24.16
2023-09-13T20:44:56.441Z,24.15
2023-09-13T20:47:25.749Z,24.02
2023-09-13T20:49:53.812Z,24.31
2023-09-13T20:52:22.015Z,24.28
2023-09-13T20:54:52.291Z,24.27
2023-09-13T20:57:21.694Z,24.32
2023-09-13T20:59:49.660Z,24.12
2023-09-13T21:02:17.788Z,24.15
2023-09-13T21:04:46.162Z,24.10
2023-09-13T21:07:14.359Z,24.24
2023-09-13T21:09:42.687Z,23.97
2023-09-13T21:12:11.626Z,23.87
2023-09-13T21:14:41.125Z,23.90
2023-09-13T21:17:09.154Z,24.08
2023-09-13T21:19:37.353Z,24.00
2023-09-13T21:22:05.813Z,23.96
2023-09-13T21:24:34.776Z,24.05
2023-09-13T21:27:02.846Z,24.11
2023-09-13T21:29:30.876Z,24.14
2023-09-13T21:32:00.296Z,24.01
2023-09-13T21:34:30.322Z,24.02
2023-09-13T21:36:58.419Z,24.06
2023-09-13T21:39:27.110Z,24.04
2023-09-13T21:41:55.080Z,23.99
2023-09-13T21:44:23.110Z,23.91
2023-09-13T21:46:53.391Z,23.79
2023-09-13T21:49:22.844Z,23.71
2023-09-13T21:51:51.010Z,23.64
2023-09-13T21:54:19.053Z,23.60
2023-09-13T21:56:47.075Z,23.60
2023-09-13T21:59:15.162Z,23.55
2023-09-13T22:01:43.535Z,23.39
2023-09-13T22:04:13.959Z,23.60
2023-09-13T22:06:43.690Z,23.54
2023-09-13T22:09:12.367Z,23.43
2023-09-13T22:11:40.620Z,23.43
2023-09-13T22:14:08.928Z,23.36
2023-09-13T22:16:37.107Z,23.39
2023-09-13T22:19:05.350Z,23.29
2023-09-13T22:21:35.088Z,23.31
2023-09-13T22:24:05.595Z,23.21
2023-09-13T22:26:33.888Z,22.95
2023-09-13T22:29:03.104Z,22.92
2023-09-13T22:31:31.305Z,22.89
2023-09-13T22:34:00.472Z,22.77
2023-09-13T22:36:29.621Z,22.20
2023-09-13T22:39:06.466Z,22.69
2023-09-13T22:41:41.512Z,22.61
2023-09-13T22:44:10.064Z,22.80
2023-09-13T22:46:38.528Z,22.77
2023-09-13T22:49:06.783Z,22.56
2023-09-13T22:51:34.933Z,22.77
2023-09-13T22:54:04.329Z,22.68
2023-09-13T22:56:32.521Z,22.62
2023-09-13T22:59:02.073Z,22.72
2023-09-13T23:01:30.212Z,22.81
2023-09-13T23:03:58.407Z,22.87
2023-09-13T23:06:54.515Z,22.94
2023-09-13T23:09:23.356Z,22.97
2023-09-13T23:11:51.769Z,22.68
2023-09-13T23:14:21.217Z,22.40
2023-09-13T23:16:49.348Z,22.79
2023-09-13T23:19:17.469Z,22.49
2023-09-13T23:21:45.574Z,22.15
2023-09-13T23:24:14.032Z,22.20
2023-09-13T23:26:42.649Z,22.35
2023-09-13T23:29:13.674Z,22.42
2023-09-13T23:31:43.565Z,22.34
2023-09-13T23:34:12.944Z,22.01
2023-09-13T23:36:41.169Z,21.98
2023-09-13T23:39:09.849Z,21.66
2023-09-13T23:41:38.096Z,21.96
2023-09-13T23:44:06.533Z,22.27
2023-09-13T23:46:34.722Z,22.27
2023-09-13T23:49:04.521Z,22.43
2023-09-13T23:51:32.749Z,22.25
2023-09-13T23:54:00.882Z,22.48
2023-09-13T23:56:29.101Z,22.44
2023-09-13T23:58:57.575Z,22.08
